sensor_id;sensor_type;location;lat;lon;timestamp;pressure;altitude;pressure_sealevel;temperature;humidity
63901;BME280;50538;53.482;10.294;2024-01-30T00:06:00;102305.38;;;4.61;100.00
63901;BME280;50538;53.482;10.294;2024-01-30T00:16:00;102304.59;;;4.59;100.00
63901;BME280;50538;53.482;10.294;2024-01-30T00:26:02;102299.59;;;4.55;100.00
63901;BME280;50538;53.482;10.294;2024-01-30T00:36:02;102296.56;;;4.47;100.00
63901;BME280;50538;53.482;10.294;2024-01-30T00:46:03;102297.94;;;4.38;100.00
63901;BME280;50538;53.482;10.294;2024-01-30T00:56:04;102283.13;;;4.21;100.00
63901;BME280;50538;53.482;10.294;2024-01-30T01:06:04;102285.28;;;4.15;100.00
63901;BME280;50538;53.482;10.294;2024-01-30T01:16:05;102283.66;;;4.12;100.00
63901;BME280;50538;53.482;10.294;2024-01-30T01:26:07;102291.25;;;4.17;100.00
63901;BME280;50538;53.482;10.294;2024-01-30T01:36:10;102287.59;;;4.19;100.00
63901;BME280;50538;53.482;10.294;2024-01-30T01:46:10;102280.66;;;4.18;100.00
63901;BME280;50538;53.482;10.294;2024-01-30T01:56:11;102272.28;;;4.12;100.00
63901;BME280;50538;53.482;10.294;2024-01-30T02:06:13;102257.81;;;4.05;100.00
63901;BME280;50538;53.482;10.294;2024-01-30T02:16:13;102260.09;;;3.95;100.00
63901;BME280;50538;53.482;10.294;2024-01-30T02:26:14;102244.00;;;3.85;100.00
63901;BME280;50538;53.482;10.294;2024-01-30T02:36:22;102238.06;;;3.82;100.00
63901;BME280;50538;53.482;10.294;2024-01-30T02:46:23;102238.75;;;3.85;100.00
63901;BME280;50538;53.482;10.294;2024-01-30T02:56:23;102229.50;;;3.94;100.00
63901;BME280;50538;53.482;10.294;2024-01-30T03:06:23;102224.56;;;4.04;100.00
63901;BME280;50538;53.482;10.294;2024-01-30T03:16:24;102209.13;;;4.13;100.00
63901;BME280;50538;53.482;10.294;2024-01-30T03:26:24;102209.59;;;4.20;100.00
63901;BME280;50538;53.482;10.294;2024-01-30T03:36:25;102201.34;;;4.26;100.00
63901;BME280;50538;53.482;10.294;2024-01-30T03:46:25;102201.09;;;4.30;100.00
63901;BME280;50538;53.482;10.294;2024-01-30T03:56:28;102191.22;;;4.34;100.00
63901;BME280;50538;53.482;10.294;2024-01-30T04:06:28;102190.38;;;4.33;100.00
63901;BME280;50538;53.482;10.294;2024-01-30T04:16:29;102184.38;;;4.31;100.00
63901;BME280;50538;53.482;10.294;2024-01-30T04:26:29;102178.34;;;4.29;100.00
63901;BME280;50538;53.482;10.294;2024-01-30T06:35:07;102131.34;;;4.39;100.00
63901;BME280;50538;53.482;10.294;2024-01-30T06:45:37;102132.09;;;4.41;100.00
63901;BME280;50538;53.482;10.294;2024-01-30T09:08:24;102098.50;;;5.43;100.00
63901;BME280;50538;53.482;10.294;2024-01-30T09:18:36;102090.44;;;5.58;100.00
63901;BME280;50538;53.482;10.294;2024-01-30T09:28:42;102082.09;;;5.79;100.00
63901;BME280;50538;53.482;10.294;2024-01-30T09:38:46;102084.84;;;6.02;100.00
63901;BME280;50538;53.482;10.294;2024-01-30T14:30:59;101976.59;;;9.80;100.00
63901;BME280;50538;53.482;10.294;2024-01-30T14:41:02;101969.34;;;9.82;100.00
63901;BME280;50538;53.482;10.294;2024-01-30T14:51:04;101969.22;;;9.84;100.00
63901;BME280;50538;53.482;10.294;2024-01-30T15:01:04;101971.47;;;9.88;100.00
63901;BME280;50538;53.482;10.294;2024-01-30T15:11:06;101976.66;;;9.90;100.00
63901;BME280;50538;53.482;10.294;2024-01-30T15:21:06;101963.50;;;9.88;100.00
63901;BME280;50538;53.482;10.294;2024-01-30T15:31:07;101972.44;;;9.87;100.00
63901;BME280;50538;53.482;10.294;2024-01-30T15:41:09;101983.91;;;9.88;100.00
63901;BME280;50538;53.482;10.294;2024-01-30T15:51:09;101990.03;;;9.88;100.00
63901;BME280;50538;53.482;10.294;2024-01-30T16:01:09;101988.38;;;9.97;100.00
63901;BME280;50538;53.482;10.294;2024-01-30T16:11:10;101997.63;;;10.03;100.00
63901;BME280;50538;53.482;10.294;2024-01-30T16:21:10;102005.34;;;10.06;100.00
63901;BME280;50538;53.482;10.294;2024-01-30T16:31:12;102009.81;;;10.05;100.00
63901;BME280;50538;53.482;10.294;2024-01-30T16:41:18;102021.25;;;10.06;100.00
63901;BME280;50538;53.482;10.294;2024-01-30T16:51:18;102022.09;;;10.06;100.00
63901;BME280;50538;53.482;10.294;2024-01-30T17:01:19;102024.88;;;10.05;100.00
63901;BME280;50538;53.482;10.294;2024-01-30T17:11:19;102020.41;;;10.05;100.00
63901;BME280;50538;53.482;10.294;2024-01-30T17:21:20;102022.94;;;10.07;100.00
63901;BME280;50538;53.482;10.294;2024-01-30T17:31:20;102021.25;;;10.06;100.00
63901;BME280;50538;53.482;10.294;2024-01-30T17:41:21;102027.16;;;10.09;100.00
63901;BME280;50538;53.482;10.294;2024-01-30T17:51:21;102018.94;;;10.12;100.00
63901;BME280;50538;53.482;10.294;2024-01-30T18:01:27;102024.09;;;10.14;100.00
63901;BME280;50538;53.482;10.294;2024-01-30T18:11:40;102039.50;;;10.20;100.00
63901;BME280;50538;53.482;10.294;2024-01-30T18:21:48;102056.84;;;10.24;100.00
63901;BME280;50538;53.482;10.294;2024-01-30T18:31:48;102048.75;;;10.25;100.00
63901;BME280;50538;53.482;10.294;2024-01-30T18:41:52;102048.75;;;10.25;100.00
63901;BME280;50538;53.482;10.294;2024-01-30T18:51:57;102047.34;;;10.21;100.00
63901;BME280;50538;53.482;10.294;2024-01-30T19:02:08;102059.56;;;10.13;100.00
63901;BME280;50538;53.482;10.294;2024-01-30T19:12:13;102062.69;;;10.18;100.00
63901;BME280;50538;53.482;10.294;2024-01-30T19:22:16;102081.91;;;10.10;100.00
63901;BME280;50538;53.482;10.294;2024-01-30T19:32:16;102085.78;;;10.06;100.00
63901;BME280;50538;53.482;10.294;2024-01-30T19:42:17;102077.13;;;10.04;100.00
63901;BME280;50538;53.482;10.294;2024-01-30T19:52:17;102089.34;;;9.95;98.84
63901;BME280;50538;53.482;10.294;2024-01-30T20:02:18;102093.50;;;9.88;99.23
63901;BME280;50538;53.482;10.294;2024-01-30T20:12:21;102110.78;;;9.83;99.66
63901;BME280;50538;53.482;10.294;2024-01-30T20:22:21;102126.34;;;9.76;100.00
63901;BME280;50538;53.482;10.294;2024-01-30T20:32:21;102129.03;;;9.65;100.00
63901;BME280;50538;53.482;10.294;2024-01-30T20:42:22;102143.66;;;9.48;100.00
63901;BME280;50538;53.482;10.294;2024-01-30T20:52:22;102134.06;;;9.36;100.00
63901;BME280;50538;53.482;10.294;2024-01-30T21:02:23;102141.81;;;9.28;100.00
63901;BME280;50538;53.482;10.294;2024-01-30T21:12:23;102142.41;;;9.20;100.00
63901;BME280;50538;53.482;10.294;2024-01-30T21:22:24;102156.03;;;9.05;100.00
63901;BME280;50538;53.482;10.294;2024-01-30T21:32:24;102159.38;;;8.95;100.00
63901;BME280;50538;53.482;10.294;2024-01-30T21:42:25;102168.75;;;8.88;100.00
63901;BME280;50538;53.482;10.294;2024-01-30T21:52:26;102185.38;;;8.68;100.00
63901;BME280;50538;53.482;10.294;2024-01-30T22:02:26;102193.97;;;8.48;100.00
63901;BME280;50538;53.482;10.294;2024-01-30T22:12:27;102206.44;;;8.35;100.00
63901;BME280;50538;53.482;10.294;2024-01-30T22:22:29;102215.06;;;8.14;100.00
63901;BME280;50538;53.482;10.294;2024-01-30T22:32:32;102210.56;;;8.04;100.00
63901;BME280;50538;53.482;10.294;2024-01-30T22:42:35;102226.16;;;7.95;100.00
63901;BME280;50538;53.482;10.294;2024-01-30T22:52:50;102243.53;;;7.87;100.00
63901;BME280;50538;53.482;10.294;2024-01-30T23:03:04;102264.59;;;7.76;100.00
63901;BME280;50538;53.482;10.294;2024-01-30T23:13:05;102286.44;;;7.54;100.00
63901;BME280;50538;53.482;10.294;2024-01-30T23:23:07;102310.25;;;7.41;100.00
63901;BME280;50538;53.482;10.294;2024-01-30T23:33:08;102312.69;;;7.19;100.00
63901;BME280;50538;53.482;10.294;2024-01-30T23:43:09;102328.94;;;7.00;100.00
63901;BME280;50538;53.482;10.294;2024-01-30T23:53:09;102336.75;;;6.89;100.00
